• Join FlightAware (Why Join?)
  • Login
  • US Flag 
07:18PM EST


 

Airport Tracker/Info


-or-


 

Live Flight TrackerFlight Track Log ✈ AFR7361 ✈ 22-Jul-2014 ✈ LFRB / BES - LFPO / ORY

Flight Track Log - Related Links

Times and Time Zones

All times are in EDT time to prevent confusion due to time zone crossing. See the AFR7361 flight status page for this flight to view local times or setup timezone preferences in your user account.

Time Position Orientation Groundspeed Altitude Reporting Facility
EDT Latitude Longitude Course Direction KTS MPH feet Rate Location/Type
12:56AM 48.4733 -4.0507 84° East  Level Estimated
12:57AM 48.4815 -3.9280 84° East  Level Estimated
12:58AM 48.4896 -3.8052 84° East  Level Estimated
12:59AM 48.4975 -3.6825 84° East  Level Estimated
01:00AM 48.5053 -3.5596 84° East  Level Estimated
01:01AM 48.5130 -3.4368 85° East  Level Estimated
01:02AM 48.5205 -3.3139 85° East  Level Estimated
01:03AM 48.5280 -3.1910 85° East  Level Estimated
01:04AM 48.5353 -3.0680 85° East  Level Estimated
01:05AM 48.5424 -2.9450 85° East  Level Estimated
01:06AM 48.5494 -2.8220 85° East  Level Estimated
01:07AM 48.5563 -2.6989 85° East  Level Estimated
01:08AM 48.5631 -2.5758 85° East  Level Estimated
01:09AM 48.5697 -2.4527 85° East  Level Estimated
01:10AM 48.5762 -2.3295 85° East  Level Estimated
01:11AM 48.5826 -2.2063 85° East  Level Estimated
01:12AM 48.5888 -2.0831 86° East  Level Estimated
01:13AM 48.5949 -1.9599 86° East  Level Estimated
01:14AM 48.6009 -1.8366 86° East  Level Estimated
01:15AM 48.6067 -1.7133 86° East  Level Estimated
01:16AM 48.6124 -1.5899 86° East  Level Estimated
01:17AM 48.6180 -1.4665 86° East  Level Estimated
01:18AM 48.6235 -1.3432 86° East  Level Estimated
01:19AM 48.6288 -1.2197 86° East  Level Estimated
01:20AM 48.6340 -1.0963 86° East  Level Estimated
01:21AM 48.6390 -0.9728 86° East  Level Estimated
01:22AM 48.6439 -0.8493 87° East  Level Estimated
01:23AM 48.6487 -0.7258 87° East  Level Estimated
01:24AM 48.6534 -0.6022 87° East  Level Estimated
01:25AM 48.6579 -0.4787 87° East  Level Estimated
01:26AM 48.6623 -0.3551 87° East  Level Estimated
01:27AM 48.6666 -0.2315 87° East  Level Estimated
01:28AM 48.6707 -0.1079 87° East  Level Estimated
01:29AM 48.6747 0.0158 87° East  Level Estimated
01:30AM 48.6785 0.1395 87° East  Level Estimated
01:31AM 48.6823 0.2632 87° East  Level Estimated
01:32AM 48.6859 0.3869 87° East  Level Estimated
01:33AM 48.6893 0.5106 88° East  Level Estimated
01:34AM 48.6927 0.6343 88° East  Level Estimated
01:35AM 48.6959 0.7581 88° East  Level Estimated
01:36AM 48.6989 0.8819 88° East  Level Estimated
01:37AM 48.7019 1.0057 88° East  Level Estimated
01:38AM 48.7047 1.1294 88° East  Level Estimated
01:39AM 48.7073 1.2533 88° East  Level Estimated
01:40AM 48.7099 1.3771 88° East  Level Estimated
01:41AM 48.7123 1.5009 88° East  Level Estimated
01:42AM 48.7145 1.6248 88° East  Level Estimated
01:43AM 48.7167 1.7486 88° East  Level Estimated
01:44AM 48.7187 1.8725 89° East  Level Estimated
01:45AM 48.7206 1.9964 89° East  Level Estimated
01:46AM 48.7223 2.1203 89° East  Level Estimated
01:47AM 48.7239 2.2442 89° East  Level Estimated
01:48AM 48.7253 2.3594 89° East  Level Estimated
01:49AM 48.7253 2.3594 North  Level Estimated
01:50AM 48.7253 2.3594 North  Level Estimated
01:51AM 48.7253 2.3594 North  Level Estimated
01:52AM 48.7253 2.3594 North  Level Estimated
01:53AM 48.7253 2.3594 North  Level Estimated
01:54AM 48.7253 2.3594 North  Level Estimated
01:55AM 48.7253 2.3594 North  Level Estimated